createdAt,value
2022-08-08T00:00:53.210Z,99190.03
2022-08-08T00:03:31.799Z,99193.41
2022-08-08T00:06:40.176Z,99189.88
2022-08-08T00:09:52.438Z,99190.03
2022-08-08T00:13:00.565Z,99191.00
2022-08-08T00:16:04.883Z,99187.22
2022-08-08T00:19:15.741Z,99195.88
2022-08-08T00:22:23.242Z,99192.75
2022-08-08T00:25:44.824Z,99193.91
2022-08-08T00:28:54.542Z,99194.44
2022-08-08T00:32:21.370Z,99193.69
2022-08-08T00:35:28.564Z,99188.75
2022-08-08T00:38:51.592Z,99181.84
2022-08-08T00:42:32.945Z,99180.47
2022-08-08T00:45:49.544Z,99190.00
2022-08-08T00:49:22.377Z,99193.25
2022-08-08T00:52:39.067Z,99181.00
2022-08-08T00:55:54.676Z,99180.34
2022-08-08T00:59:43.633Z,99179.66
2022-08-08T01:04:01.190Z,99180.97
2022-08-08T01:06:51.335Z,99177.50
2022-08-08T01:10:15.842Z,99182.28
2022-08-08T01:13:43.767Z,99173.84
2022-08-08T01:17:07.302Z,99174.66
2022-08-08T01:20:44.391Z,99181.41
2022-08-08T01:24:16.447Z,99170.09
2022-08-08T01:27:44.495Z,99183.75
2022-08-08T01:32:06.323Z,99183.81
2022-08-08T01:35:01.353Z,99172.69
2022-08-08T01:38:35.681Z,99179.72
2022-08-08T01:41:54.454Z,99179.91
2022-08-08T01:45:09.868Z,99181.13
2022-08-08T01:48:30.678Z,99179.06
2022-08-08T01:52:33.429Z,99184.25
2022-08-08T01:55:27.112Z,99178.69
2022-08-08T01:58:39.797Z,99180.19
2022-08-08T02:02:05.283Z,99187.34
2022-08-08T02:05:18.249Z,99186.03
2022-08-08T02:08:25.677Z,99177.72
2022-08-08T02:11:59.500Z,99179.97
2022-08-08T02:15:12.310Z,99184.09
2022-08-08T02:18:29.498Z,99180.78
2022-08-08T02:21:58.496Z,99179.22
2022-08-08T02:25:07.247Z,99179.63
2022-08-08T02:28:15.895Z,99175.41
2022-08-08T02:31:57.903Z,99184.38
2022-08-08T02:35:18.922Z,99180.94
2022-08-08T02:38:30.208Z,99176.50
2022-08-08T02:41:58.653Z,99181.00
2022-08-08T02:45:18.505Z,99179.78
2022-08-08T02:48:30.192Z,99181.88
2022-08-08T02:51:56.718Z,99182.75
2022-08-08T02:55:20.699Z,99179.00
2022-08-08T02:58:50.792Z,99177.97
2022-08-08T03:02:20.044Z,99177.09
2022-08-08T03:05:45.141Z,99177.19
2022-08-08T03:09:19.736Z,99184.88
2022-08-08T03:13:01.635Z,99186.16
2022-08-08T03:16:34.385Z,99186.66
2022-08-08T03:19:51.290Z,99186.66
2022-08-08T03:22:57.103Z,99188.63
2022-08-08T03:26:00.358Z,99185.31
2022-08-08T03:29:04.516Z,99190.91
2022-08-08T03:32:41.260Z,99189.19
2022-08-08T03:35:45.540Z,99186.50
2022-08-08T03:39:07.931Z,99185.13
2022-08-08T03:42:30.643Z,99181.88
2022-08-08T03:46:05.065Z,99191.06
2022-08-08T03:49:09.911Z,99195.56
2022-08-08T03:52:16.817Z,99205.34
2022-08-08T03:55:58.077Z,99207.84
2022-08-08T03:58:48.236Z,99209.06
2022-08-08T04:02:15.887Z,99207.47
2022-08-08T04:05:11.948Z,99213.09
2022-08-08T04:08:33.299Z,99207.06
2022-08-08T04:11:57.632Z,99216.06
2022-08-08T04:15:01.126Z,99217.34
2022-08-08T04:18:04.847Z,99220.16
2022-08-08T04:21:07.043Z,99224.38
2022-08-08T04:24:19.080Z,99226.19
2022-08-08T04:28:02.863Z,99223.50
2022-08-08T04:30:55.214Z,99226.19
2022-08-08T04:33:59.243Z,99226.31
2022-08-08T04:37:03.887Z,99229.16
2022-08-08T04:40:10.580Z,99230.13
2022-08-08T04:43:15.617Z,99230.81
2022-08-08T04:46:18.474Z,99234.25
2022-08-08T04:49:20.730Z,99237.25
2022-08-08T04:52:33.950Z,99229.81
2022-08-08T04:55:55.404Z,99239.91
2022-08-08T04:58:59.571Z,99240.63
2022-08-08T05:02:01.282Z,99243.06
2022-08-08T05:05:03.198Z,99247.00
2022-08-08T05:08:08.901Z,99249.50
2022-08-08T05:11:22.664Z,99240.09
2022-08-08T05:14:29.305Z,99244.34
2022-08-08T05:17:53.781Z,99242.91
2022-08-08T05:20:53.609Z,99243.31
2022-08-08T05:23:59.163Z,99246.97
2022-08-08T05:27:06.735Z,99247.75
2022-08-08T05:30:13.921Z,99244.81
2022-08-08T05:33:16.880Z,99252.81
2022-08-08T05:36:27.960Z,99252.63
2022-08-08T05:39:35.060Z,99253.84
2022-08-08T05:42:41.201Z,99247.22
2022-08-08T05:45:53.154Z,99249.53
2022-08-08T05:48:57.654Z,99252.84
2022-08-08T05:52:02.596Z,99251.72
2022-08-08T05:55:09.106Z,99255.81
2022-08-08T05:58:17.909Z,99253.56
2022-08-08T06:01:55.470Z,99255.13
2022-08-08T06:04:47.773Z,99259.88
2022-08-08T06:08:02.473Z,99261.38
2022-08-08T06:11:13.374Z,99265.00
2022-08-08T06:14:18.897Z,99259.38
2022-08-08T06:17:50.215Z,99265.09
2022-08-08T06:20:43.621Z,99265.56
2022-08-08T06:23:52.814Z,99274.91
2022-08-08T06:27:05.280Z,99275.22
2022-08-08T06:30:11.830Z,99274.78
2022-08-08T06:33:37.204Z,99272.88
2022-08-08T06:36:53.735Z,99277.63
2022-08-08T06:39:57.152Z,99282.66
2022-08-08T06:43:03.238Z,99287.66
2022-08-08T06:46:09.264Z,99283.66
2022-08-08T06:49:16.254Z,99284.41
2022-08-08T06:52:18.013Z,99293.97
2022-08-08T06:55:20.952Z,99288.19
2022-08-08T06:58:30.237Z,99286.97
2022-08-08T07:02:27.070Z,99297.16
2022-08-08T07:05:04.742Z,99290.25
2022-08-08T07:08:09.049Z,99296.84
2022-08-08T07:11:22.243Z,99298.00
2022-08-08T07:14:27.407Z,99301.75
2022-08-08T07:17:56.707Z,99294.94
2022-08-08T07:21:04.643Z,99298.22
2022-08-08T07:24:09.519Z,99296.09
2022-08-08T07:27:16.654Z,99297.13
2022-08-08T07:30:30.429Z,99295.78
2022-08-08T07:33:37.938Z,99299.25
2022-08-08T07:36:50.173Z,99303.28
2022-08-08T07:39:57.728Z,99304.13
2022-08-08T07:43:02.451Z,99305.84
2022-08-08T07:46:23.310Z,99312.97
2022-08-08T07:49:27.951Z,99317.50
2022-08-08T07:52:31.290Z,99309.00
2022-08-08T07:55:36.414Z,99317.56
2022-08-08T07:58:39.372Z,99320.81
2022-08-08T08:02:35.254Z,99316.88
2022-08-08T08:05:14.346Z,99321.63
2022-08-08T08:08:20.554Z,99320.16
2022-08-08T08:11:23.586Z,99326.66
2022-08-08T08:14:42.158Z,99323.03
2022-08-08T08:17:55.724Z,99325.00
2022-08-08T08:20:58.003Z,99329.00
2022-08-08T08:24:02.749Z,99330.00
2022-08-08T08:27:04.996Z,99327.19
2022-08-08T08:30:12.124Z,99329.00
2022-08-08T08:33:17.408Z,99327.63
2022-08-08T08:36:26.581Z,99328.28
2022-08-08T08:40:00.147Z,99329.06
2022-08-08T08:42:53.396Z,99329.84
2022-08-08T08:45:57.931Z,99329.22
2022-08-08T08:49:05.707Z,99331.34
2022-08-08T08:52:10.041Z,99336.97
2022-08-08T08:55:15.371Z,99336.34
2022-08-08T08:58:27.000Z,99334.81
2022-08-08T09:01:32.128Z,99339.47
2022-08-08T09:04:38.549Z,99339.03
2022-08-08T09:07:52.393Z,99338.69
2022-08-08T09:11:06.713Z,99336.78
2022-08-08T09:14:11.770Z,99335.44
2022-08-08T09:17:19.261Z,99335.75
2022-08-08T09:21:57.480Z,99334.63
2022-08-08T09:23:43.651Z,99332.78
2022-08-08T09:26:52.441Z,99330.75
2022-08-08T09:29:58.923Z,99340.38
2022-08-08T09:33:54.527Z,99329.94
2022-08-08T09:36:28.273Z,99335.00
2022-08-08T09:39:32.818Z,99336.63
2022-08-08T09:42:43.686Z,99327.75
2022-08-08T09:45:55.035Z,99331.13
2022-08-08T09:49:18.369Z,99340.25
2022-08-08T09:52:54.161Z,99337.63
2022-08-08T09:56:05.011Z,99330.31
2022-08-08T09:59:39.517Z,99336.97
2022-08-08T10:02:36.803Z,99332.34
2022-08-08T10:05:42.251Z,99327.13
2022-08-08T10:08:49.508Z,99328.19
2022-08-08T10:12:26.446Z,99326.22
2022-08-08T10:15:17.822Z,99328.53
2022-08-08T10:18:27.452Z,99325.09
2022-08-08T10:21:32.793Z,99329.16
2022-08-08T10:24:38.063Z,99330.69
2022-08-08T10:27:44.005Z,99321.31
2022-08-08T10:30:57.365Z,99322.91
2022-08-08T10:34:21.019Z,99317.03
2022-08-08T10:37:26.241Z,99319.59
2022-08-08T10:40:30.790Z,99326.38
2022-08-08T10:43:37.969Z,99332.38
2022-08-08T10:46:43.539Z,99330.94
2022-08-08T10:50:02.334Z,99324.19
2022-08-08T10:53:07.600Z,99321.25
2022-08-08T10:56:27.169Z,99320.63
2022-08-08T10:59:40.041Z,99324.16
2022-08-08T11:02:44.635Z,99321.00
2022-08-08T11:05:51.896Z,99318.41
2022-08-08T11:09:03.421Z,99318.38
2022-08-08T11:12:14.010Z,99305.78
2022-08-08T11:15:16.921Z,99308.88
2022-08-08T11:18:20.629Z,99314.81
2022-08-08T11:21:23.900Z,99311.69
2022-08-08T11:24:37.783Z,99309.59
2022-08-08T11:27:42.279Z,99307.59
2022-08-08T11:30:50.041Z,99305.13
2022-08-08T11:34:03.120Z,99311.00
2022-08-08T11:37:15.473Z,99304.81
2022-08-08T11:40:22.389Z,99304.06
2022-08-08T11:43:39.068Z,99303.91
2022-08-08T11:46:43.362Z,99300.56
2022-08-08T11:49:49.015Z,99307.28
2022-08-08T11:52:52.587Z,99306.94
2022-08-08T11:55:54.675Z,99308.28
2022-08-08T11:59:05.222Z,99295.25
2022-08-08T12:02:30.990Z,99306.63
2022-08-08T12:05:36.056Z,99299.69
2022-08-08T12:08:37.932Z,99298.91
2022-08-08T12:11:41.574Z,99304.88
2022-08-08T12:17:51.208Z,99294.94
2022-08-08T12:20:55.360Z,99292.41
2022-08-08T12:24:05.734Z,99294.56
2022-08-08T12:27:19.761Z,99291.94
2022-08-08T12:30:31.999Z,99291.69
2022-08-08T12:33:37.172Z,99300.06
2022-08-08T12:37:02.746Z,99292.66
2022-08-08T12:40:12.240Z,99296.41
2022-08-08T12:43:28.585Z,99288.47
2022-08-08T12:46:34.364Z,99296.31
2022-08-08T12:49:43.890Z,99292.75
2022-08-08T12:52:54.546Z,99290.59
2022-08-08T12:56:19.073Z,99289.78
2022-08-08T12:59:27.339Z,99283.66
2022-08-08T13:02:51.560Z,99287.63
2022-08-08T13:06:09.351Z,99291.09
2022-08-08T13:09:17.513Z,99294.84
2022-08-08T13:12:28.794Z,99286.91
2022-08-08T13:15:32.044Z,99287.56
2022-08-08T13:18:55.836Z,99289.03
2022-08-08T13:22:04.838Z,99293.59
2022-08-08T13:25:16.315Z,99288.47
2022-08-08T13:28:28.542Z,99286.22
2022-08-08T13:31:34.623Z,99291.31
2022-08-08T13:34:37.914Z,99280.59
2022-08-08T13:38:05.176Z,99280.91
2022-08-08T13:41:16.468Z,99283.59
2022-08-08T13:44:19.798Z,99286.81
2022-08-08T13:47:22.026Z,99280.75
2022-08-08T13:50:37.385Z,99284.97
2022-08-08T13:54:02.054Z,99278.50
2022-08-08T13:57:12.615Z,99283.25
2022-08-08T14:00:30.950Z,99279.34
2022-08-08T14:03:47.167Z,99270.19
2022-08-08T14:07:06.146Z,99272.88
2022-08-08T14:10:17.460Z,99274.94
2022-08-08T14:13:59.901Z,99290.13
2022-08-08T14:17:03.183Z,99286.50
2022-08-08T14:20:16.742Z,99282.22
2022-08-08T14:24:08.073Z,99283.94
2022-08-08T14:27:15.862Z,99284.50
2022-08-08T14:30:19.320Z,99276.06
2022-08-08T14:33:26.673Z,99273.06
2022-08-08T14:36:38.941Z,99272.19
2022-08-08T14:39:49.746Z,99274.50
2022-08-08T14:42:55.193Z,99277.94
2022-08-08T14:46:10.081Z,99281.69
2022-08-08T14:49:20.672Z,99278.66
2022-08-08T14:52:48.552Z,99279.53
2022-08-08T14:56:02.287Z,99271.78
2022-08-08T14:59:22.327Z,99268.19
2022-08-08T15:02:58.489Z,99263.03
2022-08-08T15:06:03.615Z,99272.78
2022-08-08T15:09:08.973Z,99269.19
2022-08-08T15:12:22.154Z,99264.44
2022-08-08T15:16:03.095Z,99273.47
2022-08-08T15:18:56.637Z,99269.47
2022-08-08T15:22:03.957Z,99263.84
2022-08-08T15:25:08.747Z,99269.84
2022-08-08T15:28:34.193Z,99266.13
2022-08-08T15:32:17.810Z,99266.16
2022-08-08T15:35:01.081Z,99270.03
2022-08-08T15:41:24.530Z,99272.59
2022-08-08T15:44:27.269Z,99270.72
2022-08-08T15:47:31.429Z,99276.91
2022-08-08T15:51:01.618Z,99267.56
2022-08-08T15:54:18.402Z,99263.81
2022-08-08T15:57:35.539Z,99270.41
2022-08-08T16:00:47.259Z,99266.63
2022-08-08T16:03:52.766Z,99270.78
2022-08-08T16:06:57.235Z,99274.94
2022-08-08T16:13:15.667Z,99270.22
2022-08-08T16:13:32.176Z,99273.78
2022-08-08T16:16:39.597Z,99265.44
2022-08-08T16:19:57.150Z,99267.69
2022-08-08T16:23:14.301Z,99261.94
2022-08-08T16:26:19.588Z,99270.53
2022-08-08T16:30:07.856Z,99265.50
2022-08-08T16:32:57.008Z,99261.06
2022-08-08T16:35:58.956Z,99259.59
2022-08-08T16:39:09.800Z,99267.31
2022-08-08T16:42:19.289Z,99258.09
2022-08-08T16:46:37.935Z,99254.91
2022-08-08T16:48:44.402Z,99263.47
2022-08-08T16:55:02.366Z,99263.25
2022-08-08T16:55:53.974Z,99263.81
2022-08-08T16:58:34.933Z,99257.75
2022-08-08T17:01:39.484Z,99260.88
2022-08-08T17:04:41.854Z,99258.44
2022-08-08T17:07:51.267Z,99267.97
2022-08-08T17:10:58.976Z,99264.53
2022-08-08T17:14:02.121Z,99272.84
2022-08-08T17:17:05.439Z,99274.94
2022-08-08T17:20:16.464Z,99269.19
2022-08-08T17:23:58.373Z,99282.31
2022-08-08T17:26:48.892Z,99283.84
2022-08-08T17:29:57.316Z,99288.78
2022-08-08T17:34:49.638Z,99292.78
2022-08-08T17:36:31.245Z,99300.44
2022-08-08T17:40:03.781Z,99300.97
2022-08-08T17:42:56.935Z,99303.16
2022-08-08T17:45:59.100Z,99298.41
2022-08-08T17:49:02.100Z,99303.34
2022-08-08T17:52:07.886Z,99304.47
2022-08-08T17:56:04.117Z,99304.09
2022-08-08T17:58:36.239Z,99305.34
2022-08-08T18:01:51.323Z,99308.56
2022-08-08T18:04:58.325Z,99313.66
2022-08-08T18:08:04.421Z,99313.16
2022-08-08T18:11:09.090Z,99316.13
2022-08-08T18:14:18.906Z,99315.75
2022-08-08T18:17:28.429Z,99318.59
2022-08-08T18:20:43.527Z,99311.09
2022-08-08T18:23:56.110Z,99323.31
2022-08-08T18:26:59.340Z,99321.22
2022-08-08T18:30:12.946Z,99323.53
2022-08-08T18:33:36.662Z,99321.16
2022-08-08T18:36:40.124Z,99332.41
2022-08-08T18:39:46.349Z,99330.41
2022-08-08T18:42:51.636Z,99337.22
2022-08-08T18:46:56.175Z,99352.13
2022-08-08T18:49:24.273Z,99341.00
2022-08-08T18:52:26.380Z,99353.22
2022-08-08T18:55:28.596Z,99355.53
2022-08-08T18:58:31.303Z,99356.88
2022-08-08T19:02:27.876Z,99354.50
2022-08-08T19:04:58.773Z,99356.72
2022-08-08T19:08:00.693Z,99369.75
2022-08-08T19:11:04.890Z,99375.53
2022-08-08T19:14:13.020Z,99378.78
2022-08-08T19:17:29.443Z,99383.84
2022-08-08T19:20:39.134Z,99389.34
2022-08-08T19:23:41.085Z,99397.72
2022-08-08T19:26:50.932Z,99392.97
2022-08-08T19:29:54.950Z,99398.63
2022-08-08T19:33:06.765Z,99400.84
2022-08-08T19:36:14.471Z,99401.41
2022-08-08T19:39:16.719Z,99399.00
2022-08-08T19:42:21.783Z,99405.53
2022-08-08T19:45:59.091Z,99400.78
2022-08-08T19:48:50.530Z,99412.09
2022-08-08T19:51:54.497Z,99411.66
2022-08-08T19:54:58.682Z,99413.63
2022-08-08T19:58:04.020Z,99416.44
2022-08-08T20:01:17.379Z,99410.38
2022-08-08T20:04:31.876Z,99401.06
2022-08-08T20:08:29.589Z,99411.13
2022-08-08T20:10:55.889Z,99414.16
2022-08-08T20:14:11.988Z,99414.59
2022-08-08T20:17:26.996Z,99416.53
2022-08-08T20:20:31.962Z,99426.59
2022-08-08T20:23:33.924Z,99424.66
2022-08-08T20:26:38.357Z,99429.56
2022-08-08T20:30:00.495Z,99431.38
2022-08-08T20:33:03.910Z,99434.41
2022-08-08T20:36:16.967Z,99434.63
2022-08-08T20:39:20.173Z,99430.50
2022-08-08T20:42:28.566Z,99434.19
2022-08-08T20:45:55.327Z,99433.06
2022-08-08T20:48:58.171Z,99446.47
2022-08-08T20:52:03.414Z,99436.31
2022-08-08T20:55:16.336Z,99445.38
2022-08-08T20:58:25.465Z,99448.19
2022-08-08T21:01:28.751Z,99441.66
2022-08-08T21:04:34.053Z,99442.72
2022-08-08T21:07:47.285Z,99439.16
2022-08-08T21:11:00.680Z,99450.28
2022-08-08T21:14:07.418Z,99450.47
2022-08-08T21:17:15.011Z,99443.53
2022-08-08T21:20:19.439Z,99445.50
2022-08-08T21:24:02.040Z,99450.63
2022-08-08T21:26:48.826Z,99443.03
2022-08-08T21:30:03.905Z,99445.09
2022-08-08T21:33:11.754Z,99453.09
2022-08-08T21:36:20.233Z,99449.84
2022-08-08T21:39:41.576Z,99453.69
2022-08-08T21:42:46.170Z,99453.69
2022-08-08T21:48:07.863Z,99448.28
2022-08-08T21:49:12.102Z,99449.56
2022-08-08T21:54:32.653Z,99442.06
2022-08-08T21:56:26.033Z,99451.03
2022-08-08T21:59:05.780Z,99451.78
2022-08-08T22:02:14.321Z,99453.06
2022-08-08T22:05:18.445Z,99452.28
2022-08-08T22:08:23.966Z,99453.25
2022-08-08T22:11:51.409Z,99454.00
2022-08-08T22:15:06.257Z,99457.22
2022-08-08T22:18:12.424Z,99459.34
2022-08-08T22:21:16.399Z,99453.47
2022-08-08T22:24:28.333Z,99451.16
2022-08-08T22:28:00.961Z,99470.81
2022-08-08T22:30:57.448Z,99462.63
2022-08-08T22:34:12.032Z,99470.72
2022-08-08T22:37:27.636Z,99468.72
2022-08-08T22:40:40.075Z,99464.34
2022-08-08T22:44:05.427Z,99459.72
2022-08-08T22:47:17.924Z,99471.59
2022-08-08T22:50:27.177Z,99470.81
2022-08-08T22:54:31.591Z,99478.91
2022-08-08T22:56:52.372Z,99479.59
2022-08-08T22:59:59.332Z,99484.78
2022-08-08T23:03:03.413Z,99483.25
2022-08-08T23:06:06.162Z,99481.69
2022-08-08T23:09:09.617Z,99480.25
2022-08-08T23:12:27.732Z,99484.94
2022-08-08T23:16:38.623Z,99479.84
2022-08-08T23:18:59.955Z,99483.59
2022-08-08T23:22:04.374Z,99483.75
2022-08-08T23:25:09.749Z,99484.94
2022-08-08T23:28:11.862Z,99475.88
2022-08-08T23:31:14.596Z,99485.22
2022-08-08T23:34:20.257Z,99482.00
2022-08-08T23:37:24.375Z,99483.75
2022-08-08T23:40:27.149Z,99480.94
2022-08-08T23:43:31.617Z,99485.00
2022-08-08T23:49:08.147Z,99496.66
2022-08-08T23:50:02.739Z,99493.66
2022-08-08T23:53:05.866Z,99488.66
2022-08-08T23:56:10.873Z,99495.06
2022-08-08T23:59:16.873Z,99484.28
